Time;durP1;ratioP1;P1;durP2;ratioP2;P2;SDS_P1;SDS_P2;PMS_P1;PMS_P2;Temp;Humidity;BMP_temperature;BMP_pressure;BME280_temperature;BME280_humidity;BME280_pressure;Samples;Min_cycle;Max_cycle;Signal;HPM_P1;HPM_P2
2022/11/26 00:01:42;;;;;;;;;9.00;7.75;;;;;12.02;48.71;101505.88;146604;622;46020;-77
2022/11/26 00:05:01;;;;;;;;;6.75;5.75;;;;;12.00;48.79;101507.50;146598;643;47016;-74
2022/11/26 00:08:08;;;;;;;;;6.50;6.50;;;;;12.00;48.59;101523.09;146603;597;46010;-76
2022/11/26 00:11:11;;;;;;;;;;;;;;;;;;;;;
2022/11/26 00:14:04;;;;;;;;;8.25;7.25;;;;;12.08;48.44;101528.72;146611;564;46020;-74
2022/11/26 00:17:04;;;;;;;;;8.00;7.75;;;;;12.09;48.57;101522.75;146607;617;46016;-75
2022/11/26 00:20:02;;;;;;;;;9.50;9.50;;;;;12.10;48.49;101524.53;146612;575;45919;-78
2022/11/26 00:23:11;;;;;;;;;11.50;11.00;;;;;12.11;48.21;101531.50;146601;635;47010;-78
2022/11/26 00:26:26;;;;;;;;;9.50;9.50;;;;;12.10;48.61;101530.62;146611;592;46010;-79
2022/11/26 00:29:19;;;;;;;;;6.50;4.50;;;;;12.00;48.74;101529.19;146607;669;46012;-81
2022/11/26 00:32:42;;;;;;;;;7.00;5.50;;;;;9.44;47.70;101080.66;146613;631;46015;-82
2022/11/26 00:35:35;;;;;;;;;6.00;6.00;;;;;11.99;49.08;101534.28;146605;574;46012;-80
2022/11/26 00:38:28;;;;;;;;;4.00;4.00;;;;;11.95;48.53;101522.81;146609;716;46020;-81
2022/11/26 00:41:27;;;;;;;;;5.75;5.75;;;;;11.92;48.83;101532.13;146603;642;46034;-75
2022/11/26 00:44:27;;;;;;;;;5.75;5.75;;;;;11.90;48.65;101529.47;146609;575;46010;-75
2022/11/26 00:47:19;;;;;;;;;7.25;6.75;;;;;11.88;49.14;101532.78;146604;594;46015;-75
2022/11/26 00:50:17;;;;;;;;;6.25;5.50;;;;;11.87;48.95;101542.28;146611;660;46010;-77
2022/11/26 00:53:14;;;;;;;;;9.00;7.75;;;;;11.88;48.98;101537.97;146604;606;46016;-74
2022/11/26 00:56:22;;;;;;;;;10.00;8.75;;;;;11.87;48.55;101539.69;146608;565;46021;-73
2022/11/26 00:59:25;;;;;;;;;7.25;7.25;;;;;11.87;49.31;101544.88;146604;591;46016;-82
2022/11/26 01:02:28;;;;;;;;;7.25;7.00;;;;;11.83;49.66;101531.56;146608;633;46028;-83
2022/11/26 01:05:24;;;;;;;;;7.25;6.00;;;;;11.77;49.51;101538.22;146604;583;46016;-81
2022/11/26 01:08:34;;;;;;;;;8.00;7.25;;;;;11.68;49.96;101541.94;146609;624;46012;-82
2022/11/26 01:11:32;;;;;;;;;8.75;6.25;;;;;11.59;50.34;101541.38;146604;603;46016;-83
2022/11/26 01:14:28;;;;;;;;;6.50;5.50;;;;;11.49;50.17;101538.22;146609;563;46020;-81
2022/11/26 01:17:24;;;;;;;;;6.00;5.75;;;;;11.45;50.40;101540.56;146606;606;47013;-78
2022/11/26 01:20:31;;;;;;;;;6.50;4.25;;;;;11.43;49.83;101532.69;146609;668;46010;-82
2022/11/26 01:23:28;;;;;;;;;9.50;6.75;;;;;11.42;50.80;101527.41;146603;616;47014;-78
2022/11/26 01:26:43;;;;;;;;;6.25;5.50;;;;;11.39;50.66;101527.22;146606;586;46021;-76
2022/11/26 01:29:35;;;;;;;;;8.50;7.75;;;;;11.37;51.06;101521.00;146604;564;46016;-77
2022/11/26 01:32:29;;;;;;;;;6.75;6.75;;;;;11.31;50.60;101517.25;146609;605;46011;-78
2022/11/26 01:35:30;;;;;;;;;5.75;5.75;;;;;11.30;50.72;101525.84;146605;565;45914;-78
2022/11/26 01:38:23;;;;;;;;;5.50;5.00;;;;;11.25;50.60;101521.19;146612;617;46020;-78
2022/11/26 01:41:49;;;;;;;;;7.50;6.00;;;;;11.30;49.75;101527.53;146605;572;47016;-76
2022/11/26 01:44:59;;;;;;;;;5.50;4.75;;;;;11.30;49.95;101523.22;146611;672;46010;-77
2022/11/26 01:48:01;;;;;;;;;7.50;5.75;;;;;11.32;50.32;101528.53;146604;590;46016;-77
2022/11/26 01:51:07;;;;;;;;;5.50;5.50;;;;;11.29;49.53;101516.25;146610;581;46010;-77
2022/11/26 01:54:18;;;;;;;;;7.00;5.25;;;;;8.51;48.95;101023.97;146605;571;46915;-76
2022/11/26 01:57:45;;;;;;;;;4.75;4.50;;;;;11.27;49.41;101515.25;146608;570;46010;-76
2022/11/26 02:00:43;;;;;;;;;3.75;3.75;;;;;11.23;49.18;101513.28;146607;610;46016;-74
2022/11/26 02:03:55;;;;;;;;;7.50;5.50;;;;;11.22;48.83;101519.28;146609;615;46014;-75
2022/11/26 02:06:56;;;;;;;;;5.00;5.00;;;;;11.19;48.28;101524.31;146603;743;46915;-74
2022/11/26 02:10:00;;;;;;;;;4.75;3.75;;;;;11.15;48.38;101524.91;146608;600;46021;-76
2022/11/26 02:13:14;;;;;;;;;;;;;;;;;;;;;
2022/11/26 02:16:37;;;;;;;;;7.00;7.00;;;;;11.12;48.66;101518.63;146604;581;46010;-77
2022/11/26 02:20:11;;;;;;;;;6.50;4.75;;;;;9.84;48.18;101294.53;146601;556;46912;-77
2022/11/26 02:24:00;;;;;;;;;11.50;8.00;;;;;8.41;48.42;101050.03;146602;580;46010;-75
2022/11/26 02:27:48;;;;;;;;;12.50;9.00;;;;;8.38;48.39;101072.13;146599;577;46914;-77
2022/11/26 02:30:59;;;;;;;;;;;;;;;;;;;;;
2022/11/26 02:34:28;;;;;;;;;8.25;8.25;;;;;7.58;48.24;100945.53;146598;606;46016;-78
2022/11/26 02:37:49;;;;;;;;;10.75;9.25;;;;;10.95;49.09;101522.78;146600;615;46020;-77
2022/11/26 02:40:49;;;;;;;;;6.75;6.75;;;;;10.95;49.27;101536.66;146598;585;46012;-76
2022/11/26 02:43:53;;;;;;;;;8.50;7.00;;;;;10.89;49.35;101518.09;146599;655;47010;-79
2022/11/26 02:46:50;;;;;;;;;8.50;7.25;;;;;10.82;49.62;101523.72;146596;576;46017;-79
2022/11/26 02:49:53;;;;;;;;;12.25;9.00;;;;;10.74;49.78;101531.00;146601;566;46014;-79
2022/11/26 02:52:52;;;;;;;;;10.25;9.25;;;;;10.65;50.08;101530.41;146597;569;47012;-80
2022/11/26 02:55:55;;;;;;;;;13.00;9.00;;;;;10.61;50.22;101538.81;146600;634;47010;-79
2022/11/26 02:59:05;;;;;;;;;8.50;8.00;;;;;10.52;50.74;101544.28;146597;593;47012;-77
2022/11/26 03:02:41;;;;;;;;;8.25;7.25;;;;;7.57;50.71;101071.06;146602;675;46021;-78
2022/11/26 03:05:45;;;;;;;;;7.25;7.25;;;;;10.15;51.52;101536.66;146599;571;46915;-78
2022/11/26 03:08:53;;;;;;;;;;;;;;;;;;;;;
2022/11/26 03:11:50;;;;;;;;;7.00;7.00;;;;;9.87;52.12;101552.06;146598;644;46913;-78
2022/11/26 03:14:49;;;;;;;;;7.50;7.50;;;;;9.81;52.53;101556.88;146608;606;46010;-77
2022/11/26 03:17:54;;;;;;;;;;;;;;;;;;;;;
2022/11/26 03:20:53;;;;;;;;;7.50;5.50;;;;;9.47;53.30;101546.81;146611;680;46022;-78
2022/11/26 03:23:53;;;;;;;;;5.75;4.75;;;;;9.28;53.76;101533.38;146606;569;46017;-77
2022/11/26 03:26:51;;;;;;;;;5.25;4.50;;;;;9.13;54.25;101530.62;146610;665;46014;-77
2022/11/26 03:29:59;;;;;;;;;7.25;6.25;;;;;8.99;54.54;101528.75;146604;577;46015;-76
2022/11/26 03:32:58;;;;;;;;;5.50;5.50;;;;;8.87;55.09;101541.72;146611;577;46010;-75
2022/11/26 03:35:54;;;;;;;;;6.75;6.00;;;;;8.70;54.71;101535.37;146605;563;46915;-75
2022/11/26 03:38:47;;;;;;;;;8.75;5.75;;;;;8.77;54.91;101544.44;146609;676;46031;-76
2022/11/26 03:41:43;;;;;;;;;9.00;6.00;;;;;8.80;55.49;101555.00;146605;582;46016;-76
2022/11/26 03:44:36;;;;;;;;;8.25;5.50;;;;;8.77;55.39;101558.28;146609;590;46011;-78
2022/11/26 03:47:29;;;;;;;;;7.50;4.50;;;;;8.72;55.80;101562.25;146602;606;46016;-75
2022/11/26 03:50:24;;;;;;;;;8.50;7.00;;;;;8.65;55.80;101566.84;146605;570;46020;-78
2022/11/26 03:53:22;;;;;;;;;5.25;5.00;;;;;8.63;55.80;101569.31;146604;725;47013;-75
2022/11/26 03:56:17;;;;;;;;;4.75;3.50;;;;;8.65;55.63;101567.72;146613;563;46020;-73
2022/11/26 03:59:12;;;;;;;;;7.50;4.50;;;;;8.69;55.39;101584.34;146604;603;46013;-80
2022/11/26 04:02:15;;;;;;;;;6.75;6.75;;;;;8.69;55.27;101574.94;146607;607;46020;-80
2022/11/26 04:05:23;;;;;;;;;5.00;5.00;;;;;5.82;55.00;101083.28;146603;590;46033;-73
2022/11/26 04:08:16;;;;;;;;;3.00;3.00;;;;;8.52;55.42;101586.63;146607;570;46021;-73
2022/11/26 04:11:21;;;;;;;;;6.25;5.50;;;;;8.42;55.12;101583.28;146605;577;46016;-73
2022/11/26 04:14:14;;;;;;;;;6.25;5.00;;;;;8.38;55.89;101586.34;146605;593;46020;-73
2022/11/26 04:17:11;;;;;;;;;7.25;6.00;;;;;8.37;55.96;101589.75;146597;718;46016;-73
2022/11/26 04:20:17;;;;;;;;;8.75;5.00;;;;;8.29;55.92;101597.84;146603;569;46029;-73
2022/11/26 04:23:24;;;;;;;;;4.50;4.00;;;;;8.19;56.45;101610.81;146600;597;46013;-73
2022/11/26 04:26:37;;;;;;;;;8.25;7.75;;;;;8.09;56.08;101605.75;146602;584;46020;-74
2022/11/26 04:29:42;;;;;;;;;5.00;5.00;;;;;8.09;57.17;101616.09;146598;564;46016;-73
2022/11/26 04:32:44;;;;;;;;;5.75;5.00;;;;;8.06;58.03;101616.75;146600;608;46010;-73
2022/11/26 04:35:45;;;;;;;;;4.75;4.75;;;;;8.07;56.78;101616.00;146601;585;46016;-73
2022/11/26 04:38:37;;;;;;;;;5.75;5.00;;;;;8.06;57.47;101621.94;146603;579;46021;-74
2022/11/26 04:41:30;;;;;;;;;4.75;4.75;;;;;8.03;58.00;101628.56;146600;607;46030;-74
2022/11/26 04:44:25;;;;;;;;;11.75;9.50;;;;;7.99;58.33;101629.13;146602;564;46021;-75
2022/11/26 04:47:30;;;;;;;;;6.00;5.00;;;;;7.93;58.04;101626.06;146599;611;46016;-77
2022/11/26 04:50:35;;;;;;;;;8.75;7.00;;;;;8.00;57.66;101628.31;146602;570;46021;-76
2022/11/26 04:53:34;;;;;;;;;12.50;10.00;;;;;7.99;58.58;101631.69;146599;618;46017;-76
2022/11/26 04:56:27;;;;;;;;;7.00;7.00;;;;;7.97;59.21;101635.84;146604;607;46020;-77
2022/11/26 04:59:23;;;;;;;;;7.00;7.00;;;;;7.92;58.39;101632.91;146600;661;46017;-78
2022/11/26 05:02:18;;;;;;;;;8.00;7.25;;;;;7.89;59.97;101634.38;146604;610;46010;-77
2022/11/26 05:05:15;;;;;;;;;7.50;6.00;;;;;7.85;59.33;101636.72;146600;605;46016;-76
2022/11/26 05:08:16;;;;;;;;;8.75;7.00;;;;;7.85;59.99;101638.41;146603;607;46021;-76
2022/11/26 05:11:19;;;;;;;;;6.25;6.00;;;;;7.82;59.53;101643.34;146603;589;45916;-76
2022/11/26 05:14:19;;;;;;;;;5.75;5.00;;;;;7.80;60.03;101642.31;146633;580;44021;-76
2022/11/26 05:17:33;;;;;;;;;12.00;8.75;;;;;7.86;59.13;101648.84;146621;614;46012;-77
2022/11/26 05:20:42;;;;;;;;;13.00;10.50;;;;;5.21;59.68;101174.59;146631;606;45010;-79
2022/11/26 05:23:40;;;;;;;;;13.00;13.00;;;;;8.03;59.57;101649.22;146625;589;45012;-78
2022/11/26 05:26:37;;;;;;;;;11.00;9.50;;;;;8.14;60.33;101643.19;146629;576;45010;-79
2022/11/26 05:29:44;;;;;;;;;14.50;12.00;;;;;8.24;59.25;101650.84;146622;599;46017;-77
2022/11/26 05:32:46;;;;;;;;;12.00;10.00;;;;;8.33;59.55;101648.06;146625;623;45020;-78
2022/11/26 05:35:42;;;;;;;;;11.00;9.50;;;;;8.42;59.39;101650.47;146627;610;45030;-78
2022/11/26 05:38:35;;;;;;;;;12.00;11.00;;;;;8.51;59.25;101649.47;146629;597;45030;-78
2022/11/26 05:41:28;;;;;;;;;8.75;8.00;;;;;8.50;59.79;101651.91;146625;588;45016;-78
2022/11/26 05:44:27;;;;;;;;;10.00;8.75;;;;;8.39;59.00;101658.00;146628;569;45026;-73
2022/11/26 05:47:22;;;;;;;;;9.50;7.75;;;;;8.34;59.07;101661.06;146627;575;45012;-72
2022/11/26 05:50:17;;;;;;;;;10.75;9.00;;;;;8.28;58.85;101662.31;146630;570;45020;-72
2022/11/26 05:53:12;;;;;;;;;10.25;8.00;;;;;8.28;59.75;101663.19;146623;615;46014;-73
2022/11/26 05:56:08;;;;;;;;;10.00;9.50;;;;;8.20;59.67;101661.75;146626;627;46020;-72
2022/11/26 05:59:07;;;;;;;;;12.25;9.00;;;;;8.15;59.64;101657.91;146624;581;46014;-72
2022/11/26 06:02:05;;;;;;;;;8.50;7.25;;;;;8.23;60.20;101664.56;146626;581;46010;-72
2022/11/26 06:05:05;;;;;;;;;8.50;7.00;;;;;8.62;60.04;101678.69;146627;578;45016;-73
2022/11/26 06:08:00;;;;;;;;;12.25;10.00;;;;;9.33;59.83;101673.47;146631;590;45014;-72
2022/11/26 06:11:21;;;;;;;;;;;;;;;;;;;;;
2022/11/26 06:14:17;;;;;;;;;10.00;8.00;;;;;11.84;53.87;101677.19;146629;588;45021;-80
2022/11/26 06:17:15;;;;;;;;;13.00;11.00;;;;;12.82;52.80;101682.13;146627;576;46010;-74
2022/11/26 06:20:21;;;;;;;;;15.50;12.50;;;;;13.83;50.71;101679.94;146629;564;46011;-79
2022/11/26 06:23:13;;;;;;;;;10.00;8.00;;;;;14.81;47.46;101679.78;146625;643;45020;-83
2022/11/26 06:26:21;;;;;;;;;12.00;9.00;;;;;15.42;46.40;101682.72;146630;562;45020;-82
2022/11/26 06:29:18;;;;;;;;;7.00;6.75;;;;;16.02;45.34;101688.09;146619;599;47917;-78
2022/11/26 06:32:36;;;;;;;;;7.75;7.00;;;;;14.06;45.00;101270.03;146626;586;46010;-77
2022/11/26 06:35:41;;;;;;;;;9.25;8.00;;;;;15.13;43.44;101427.06;146622;581;45914;-74
2022/11/26 06:38:34;;;;;;;;;8.75;8.00;;;;;16.61;42.74;101696.75;146628;595;45020;-76
2022/11/26 06:41:33;;;;;;;;;10.25;8.25;;;;;16.46;43.13;101709.19;146622;569;45916;-75
2022/11/26 06:44:29;;;;;;;;;12.25;10.50;;;;;16.30;43.52;101721.59;146628;580;45020;-73
2022/11/26 06:47:29;;;;;;;;;12.25;11.00;;;;;16.14;43.87;101716.53;146625;627;45016;-78
2022/11/26 06:50:24;;;;;;;;;13.25;11.25;;;;;16.05;45.22;101718.75;146628;605;45011;-78
2022/11/26 06:53:23;;;;;;;;;9.25;8.00;;;;;16.23;45.73;101718.63;146622;600;46014;-77
2022/11/26 06:56:22;;;;;;;;;9.00;7.00;;;;;16.56;46.02;101716.59;146627;577;45917;-77
2022/11/26 06:59:18;;;;;;;;;10.75;9.00;;;;;16.96;45.92;101715.69;146626;646;45010;-77
2022/11/26 07:02:10;;;;;;;;;16.50;14.00;;;;;17.48;44.70;101715.16;146627;573;46010;-78
2022/11/26 07:05:16;;;;;;;;;20.50;19.00;;;;;17.95;43.45;101722.22;146626;581;45917;-79
2022/11/26 07:08:11;;;;;;;;;24.25;21.75;;;;;18.30;41.41;101719.09;146625;613;45020;-76
2022/11/26 07:11:14;;;;;;;;;17.00;14.25;;;;;18.61;41.92;101723.69;146626;581;45916;-78
2022/11/26 07:14:06;;;;;;;;;25.50;22.75;;;;;18.86;40.37;101717.56;146627;581;45913;-78
2022/11/26 07:17:01;;;;;;;;;21.50;18.75;;;;;18.96;39.99;101719.62;146624;611;45866;-78
2022/11/26 07:20:10;;;;;;;;;21.50;19.25;;;;;16.46;40.05;101295.59;146627;622;45917;-77
2022/11/26 07:23:08;;;;;;;;;26.75;20.75;;;;;18.63;38.53;101719.38;146624;650;45916;-78
2022/11/26 07:26:17;;;;;;;;;;;;;;;;;;;;;
2022/11/26 07:29:31;;;;;;;;;18.75;16.50;;;;;14.75;42.05;101244.41;146621;580;46014;-77
2022/11/26 07:32:25;;;;;;;;;20.25;18.00;;;;;17.23;40.56;101727.28;146624;606;45029;-81
2022/11/26 07:35:23;;;;;;;;;17.50;14.25;;;;;16.71;41.83;101726.84;146623;698;45917;-80
2022/11/26 07:38:28;;;;;;;;;;;;;;;;;;;;;
2022/11/26 07:41:36;;;;;;;;;12.00;12.00;;;;;16.14;43.52;101719.16;146626;617;45012;-77
2022/11/26 07:44:55;;;;;;;;;15.00;13.00;;;;;16.18;44.34;101721.06;146625;584;45010;-78
2022/11/26 07:48:03;;;;;;;;;;;;;;;;;;;;;
2022/11/26 07:50:59;;;;;;;;;11.00;9.75;;;;;16.24;42.03;101721.34;146627;680;45030;-79
2022/11/26 07:54:01;;;;;;;;;13.00;11.50;;;;;16.09;42.97;101718.94;146627;607;45012;-78
2022/11/26 07:57:15;;;;;;;;;11.25;11.00;;;;;16.17;42.44;101712.31;146627;581;45021;-79
2022/11/26 08:00:38;;;;;;;;;;;;;;;;;;;;;
2022/11/26 08:03:45;;;;;;;;;7.00;6.75;;;;;16.55;41.19;101705.22;146631;570;45011;-78
2022/11/26 08:06:38;;;;;;;;;7.00;6.25;;;;;16.63;41.39;101714.31;146628;616;45914;-78
2022/11/26 08:09:31;;;;;;;;;5.25;4.25;;;;;16.74;40.11;101716.50;146623;573;45919;-78
2022/11/26 08:12:37;;;;;;;;;9.00;5.00;;;;;14.46;41.52;101290.09;146611;669;46915;-79
2022/11/26 08:15:29;;;;;;;;;8.00;7.00;;;;;17.02;40.21;101718.56;146603;684;46010;-79
2022/11/26 08:18:22;;;;;;;;;7.00;6.00;;;;;17.12;39.52;101715.47;146598;576;46017;-78
2022/11/26 08:21:14;;;;;;;;;9.50;8.00;;;;;17.21;39.85;101715.84;146603;663;46010;-78
2022/11/26 08:24:08;;;;;;;;;8.25;7.00;;;;;17.36;41.11;101709.44;146600;643;46016;-78
2022/11/26 08:27:00;;;;;;;;;8.25;6.00;;;;;17.58;40.66;101705.91;146601;578;46021;-78
2022/11/26 08:29:57;;;;;;;;;7.00;5.00;;;;;17.82;40.83;101713.81;146599;649;47012;-79
2022/11/26 08:32:49;;;;;;;;;11.25;9.25;;;;;18.05;37.95;101712.06;146599;570;46020;-78
2022/11/26 08:36:00;;;;;;;;;8.75;4.25;;;;;18.17;35.62;101709.88;146599;582;46012;-78
2022/11/26 08:39:03;;;;;;;;;4.75;4.75;;;;;17.99;35.53;101696.97;146602;563;46010;-76
2022/11/26 08:41:58;;;;;;;;;5.00;4.25;;;;;17.85;39.36;101701.75;146597;564;47013;-77
2022/11/26 08:44:53;;;;;;;;;5.75;5.50;;;;;17.98;37.70;101696.09;146602;568;46020;-77
2022/11/26 08:47:54;;;;;;;;;5.25;5.00;;;;;18.14;38.12;101699.28;146598;662;46016;-78
2022/11/26 08:51:08;;;;;;;;;5.25;5.25;;;;;18.27;37.41;101697.97;146604;588;46020;-78
2022/11/26 08:54:13;;;;;;;;;;;;;;;;;;;;;
2022/11/26 08:57:16;;;;;;;;;6.33;4.00;;;;;18.43;35.41;101690.69;146602;630;46020;-81
2022/11/26 09:00:24;;;;;;;;;;;;;;;;;;;;;
2022/11/26 09:03:20;;;;;;;;;3.00;3.00;;;;;18.55;36.20;101699.84;146604;565;46010;-78
2022/11/26 09:06:14;;;;;;;;;4.33;4.33;;;;;18.57;37.97;101698.16;146601;664;46016;-77
2022/11/26 09:09:12;;;;;;;;;2.00;2.00;;;;;18.67;36.53;101697.63;146602;686;46020;-78
2022/11/26 09:12:04;;;;;;;;;4.67;2.00;;;;;18.75;37.18;101693.53;146601;599;46016;-77
2022/11/26 09:14:58;;;;;;;;;6.00;4.67;;;;;18.58;36.63;101673.66;146602;645;46020;-78
2022/11/26 09:18:02;;;;;;;;;3.67;3.67;;;;;18.58;37.19;101677.19;146599;565;46012;-77
2022/11/26 09:20:58;;;;;;;;;3.67;3.67;;;;;18.57;36.12;101680.66;146604;577;46020;-78
2022/11/26 09:24:05;;;;;;;;;3.00;2.00;;;;;18.43;37.94;101685.44;146603;641;46016;-76
2022/11/26 09:27:07;;;;;;;;;2.67;2.67;;;;;18.44;38.40;101688.94;146604;572;46020;-80
2022/11/26 09:30:21;;;;;;;;;4.67;3.00;;;;;18.51;39.53;101690.97;146600;587;46027;-77
2022/11/26 09:33:23;;;;;;;;;3.75;3.75;;;;;16.12;40.27;101249.84;146599;627;46020;-78
2022/11/26 09:36:18;;;;;;;;;3.33;2.67;;;;;18.66;37.83;101686.22;146601;582;46012;-77
2022/11/26 09:39:11;;;;;;;;;2.33;2.33;;;;;18.51;37.22;101688.34;146601;574;46020;-77
2022/11/26 09:42:48;;;;;;;;;3.00;3.00;;;;;15.72;38.89;101240.50;146599;638;46016;-82
2022/11/26 09:46:06;;;;;;;;;3.00;2.00;;;;;15.44;38.83;101251.56;146608;615;46020;-76
2022/11/26 09:49:08;;;;;;;;;3.33;3.33;;;;;17.59;39.61;101669.22;146601;571;46016;-76
2022/11/26 09:52:06;;;;;;;;;1.33;1.33;;;;;17.28;39.98;101673.31;146604;566;46037;-79
2022/11/26 09:55:13;;;;;;;;;3.25;2.75;;;;;17.17;41.17;101673.75;146600;649;46016;-75
2022/11/26 09:59:05;;;;;;;;;1.33;1.33;;;;;14.51;41.03;101223.34;146604;569;45047;-80
2022/11/26 10:02:03;;;;;;;;;1.00;0.67;;;;;17.00;39.82;101675.66;146600;576;46017;-77
2022/11/26 10:05:04;;;;;;;;;2.00;1.00;;;;;16.89;40.88;101670.00;146601;598;46020;-78
2022/11/26 10:08:30;;;;;;;;;4.50;4.00;;;;;14.29;40.17;101213.66;146600;597;46012;-78
2022/11/26 10:11:54;;;;;;;;;1.33;1.33;;;;;16.82;41.38;101681.03;146604;569;46021;-78
2022/11/26 10:15:27;;;;;;;;;1.00;1.00;;;;;16.66;41.05;101676.88;146600;573;46016;-83
2022/11/26 10:18:55;;;;;;;;;2.00;2.00;;;;;16.62;41.90;101683.72;146605;567;46010;-77
2022/11/26 10:21:58;;;;;;;;;2.00;2.00;;;;;16.62;41.67;101683.72;146601;608;46016;-79
2022/11/26 10:24:58;;;;;;;;;3.00;3.00;;;;;16.78;41.65;101687.00;146604;632;46011;-82
2022/11/26 10:28:14;;;;;;;;;2.33;2.33;;;;;16.85;40.46;101669.00;146599;602;46016;-78
2022/11/26 10:31:19;;;;;;;;;2.00;2.00;;;;;17.01;40.56;101662.66;146604;653;46010;-76
2022/11/26 10:34:28;;;;;;;;;2.33;2.33;;;;;17.21;40.66;101662.53;146599;595;47012;-76
2022/11/26 10:37:34;;;;;;;;;3.67;2.00;;;;;17.25;39.88;101665.31;146602;569;47010;-74
2022/11/26 10:40:33;;;;;;;;;3.00;3.00;;;;;17.42;39.85;101652.00;146601;570;46016;-72
2022/11/26 10:43:44;;;;;;;;;1.67;1.33;;;;;15.11;40.73;101199.75;146603;569;47020;-75
2022/11/26 10:46:39;;;;;;;;;2.00;2.00;;;;;17.80;38.88;101639.44;146597;617;48015;-74
2022/11/26 10:49:33;;;;;;;;;1.00;1.00;;;;;17.80;37.96;101640.31;146601;589;46021;-74
2022/11/26 10:52:31;;;;;;;;;2.33;2.00;;;;;17.65;38.88;101644.97;146601;600;46016;-75
2022/11/26 10:56:11;;;;;;;;;1.67;1.00;;;;;14.90;40.24;101178.00;146603;581;46021;-74
2022/11/26 10:59:17;;;;;;;;;2.50;1.25;;;;;17.44;39.80;101629.31;146597;611;47012;-73
2022/11/26 11:02:43;;;;;;;;;3.00;1.67;;;;;14.83;40.52;101174.25;146597;582;47010;-75
2022/11/26 11:05:42;;;;;;;;;0.33;0.33;;;;;17.36;38.96;101621.19;146600;625;46016;-75
2022/11/26 11:08:48;;;;;;;;;2.00;1.00;;;;;17.35;39.30;101613.25;146603;638;46010;-75
2022/11/26 11:11:52;;;;;;;;;1.00;1.00;;;;;17.31;39.04;101613.13;146600;574;46016;-76
2022/11/26 11:14:58;;;;;;;;;1.50;1.50;;;;;14.74;39.84;101182.59;146602;663;46020;-74
2022/11/26 11:18:27;;;;;;;;;1.00;1.00;;;;;15.74;41.08;101356.50;146600;610;46016;-74
2022/11/26 11:21:23;;;;;;;;;1.67;1.67;;;;;17.30;40.11;101607.84;146605;565;46020;-74
2022/11/26 11:24:35;;;;;;;;;3.00;3.00;;;;;17.54;41.12;101621.00;146599;618;46016;-74
2022/11/26 11:27:44;;;;;;;;;5.00;2.50;;;;;17.78;39.01;101610.50;146602;705;46020;-75
2022/11/26 11:30:59;;;;;;;;;3.00;3.00;;;;;17.95;39.48;101608.50;146600;577;46012;-75
2022/11/26 11:33:56;;;;;;;;;3.67;2.67;;;;;18.07;38.78;101614.19;146604;576;46010;-76
2022/11/26 11:37:04;;;;;;;;;2.00;2.00;;;;;18.14;38.25;101608.28;146597;651;46016;-76
2022/11/26 11:40:42;;;;;;;;;2.00;1.00;;;;;18.23;39.19;101627.00;146602;593;46020;-76
2022/11/26 11:43:39;;;;;;;;;2.00;2.00;;;;;18.35;37.98;101629.16;146601;612;46012;-74
2022/11/26 11:47:14;;;;;;;;;2.00;1.00;;;;;16.01;39.69;101181.47;146602;642;47014;-74
2022/11/26 11:50:49;;;;;;;;;2.00;2.00;;;;;16.28;38.84;101168.47;146599;662;46016;-74
2022/11/26 11:54:36;;;;;;;;;3.33;3.33;;;;;16.50;38.99;101177.06;146604;612;46011;-75
2022/11/26 11:58:18;;;;;;;;;5.67;5.67;;;;;19.17;37.52;101616.03;146600;612;46016;-75
2022/11/26 12:01:54;;;;;;;;;5.67;5.67;;;;;19.06;38.80;101624.44;146607;617;45022;-75
2022/11/26 12:05:26;;;;;;;;;4.00;3.33;;;;;16.72;38.91;101231.94;146601;592;46016;-74
2022/11/26 12:09:01;;;;;;;;;4.00;3.00;;;;;19.09;38.87;101623.66;146604;586;46011;-74
2022/11/26 12:12:53;;;;;;;;;5.00;4.00;;;;;17.05;38.46;101207.75;146598;728;46034;-75
2022/11/26 12:16:09;;;;;;;;;4.33;3.67;;;;;19.81;37.83;101610.94;146604;591;46021;-75
2022/11/26 12:19:50;;;;;;;;;5.67;4.00;;;;;20.11;35.35;101606.44;146600;586;46012;-76
2022/11/26 12:23:01;;;;;;;;;4.00;3.33;;;;;20.22;34.67;101603.25;146604;588;46020;-76
2022/11/26 12:26:07;;;;;;;;;3.00;3.00;;;;;20.22;34.25;101605.88;146599;585;46012;-77
2022/11/26 12:29:42;;;;;;;;;3.67;2.00;;;;;20.27;36.50;101609.50;146603;587;46020;-75
2022/11/26 12:33:05;;;;;;;;;1.00;1.00;;;;;20.52;35.98;101605.75;146601;632;46016;-76
2022/11/26 12:36:24;;;;;;;;;3.00;2.00;;;;;20.64;34.38;101599.91;146605;570;46020;-75
2022/11/26 12:39:50;;;;;;;;;1.33;1.33;;;;;18.14;35.97;101187.47;146602;669;46913;-76
2022/11/26 12:43:17;;;;;;;;;4.67;3.00;;;;;20.33;36.20;101597.34;146604;600;46020;-76
2022/11/26 12:47:00;;;;;;;;;;;;;;;;;;;;;
2022/11/26 12:50:46;;;;;;;;;2.00;2.00;;;;;17.93;37.57;101178.12;146602;657;46010;-77
2022/11/26 12:54:36;;;;;;;;;3.67;3.67;;;;;17.82;37.06;101131.44;146602;583;46016;-77
2022/11/26 12:57:51;;;;;;;;;3.00;3.00;;;;;20.00;36.60;101499.13;146606;594;46020;-74
2022/11/26 13:00:48;;;;;;;;;3.67;3.00;;;;;20.66;34.61;101600.84;146598;593;46012;-76
2022/11/26 13:03:54;;;;;;;;;2.00;2.00;;;;;20.61;33.96;101601.59;146605;576;46010;-75
2022/11/26 13:07:40;;;;;;;;;2.00;2.00;;;;;20.24;37.04;101583.06;146600;580;46016;-74
2022/11/26 13:11:26;;;;;;;;;2.00;2.00;;;;;20.03;37.50;101593.06;146604;570;46020;-76
2022/11/26 13:15:23;;;;;;;;;;;;;;;;;;;;;
2022/11/26 13:18:36;;;;;;;;;3.00;2.00;;;;;19.69;36.09;101602.69;146604;569;46030;-74
2022/11/26 13:22:15;;;;;;;;;2.33;2.00;;;;;19.56;38.20;101625.09;146599;569;46016;-76
2022/11/26 13:25:48;;;;;;;;;1.67;1.67;;;;;19.67;38.54;101608.75;146604;604;46020;-75
2022/11/26 13:29:19;;;;;;;;;1.67;1.67;;;;;19.98;37.97;101602.59;146600;602;46012;-76
2022/11/26 13:32:54;;;;;;;;;3.75;3.00;;;;;19.98;37.84;101584.16;146602;607;46014;-74
2022/11/26 13:36:38;;;;;;;;;6.00;6.00;;;;;17.95;37.79;101238.53;146598;722;46016;-77
2022/11/26 13:40:17;;;;;;;;;3.00;2.00;;;;;18.40;37.21;101430.63;146603;566;46021;-74
2022/11/26 13:43:48;;;;;;;;;3.33;2.67;;;;;19.13;36.38;101620.31;146600;580;46016;-75
2022/11/26 13:47:04;;;;;;;;;2.00;2.00;;;;;18.66;36.47;101615.31;146604;586;46020;-74
2022/11/26 13:50:21;;;;;;;;;2.00;2.00;;;;;18.24;36.58;101620.00;146601;585;45916;-74
2022/11/26 13:53:33;;;;;;;;;2.00;2.00;;;;;17.80;38.19;101627.22;146601;710;46021;-74
2022/11/26 13:56:35;;;;;;;;;1.67;1.67;;;;;17.45;38.36;101631.13;146596;583;47014;-72
2022/11/26 13:59:35;;;;;;;;;2.33;1.67;;;;;17.16;38.95;101632.63;146601;636;46021;-74
2022/11/26 14:02:45;;;;;;;;;4.67;1.00;;;;;16.91;40.56;101631.66;146598;643;46016;-74
2022/11/26 14:06:19;;;;;;;;;3.00;2.33;;;;;14.09;40.78;101185.84;146603;569;47010;-76
2022/11/26 14:09:50;;;;;;;;;3.25;3.25;;;;;13.89;40.83;101195.34;146600;587;46012;-76
2022/11/26 14:13:29;;;;;;;;;2.75;2.00;;;;;16.26;40.71;101650.72;146602;601;46010;-74
2022/11/26 14:16:26;;;;;;;;;4.75;3.00;;;;;16.10;41.17;101649.19;146599;670;46017;-76
2022/11/26 14:19:19;;;;;;;;;3.50;3.50;;;;;16.02;41.32;101655.81;146602;614;46031;-75
2022/11/26 14:22:47;;;;;;;;;4.00;4.00;;;;;15.94;42.70;101653.72;146598;611;46032;-73
2022/11/26 14:25:54;;;;;;;;;3.00;3.00;;;;;15.85;42.42;101655.06;146602;630;46020;-75
2022/11/26 14:29:17;;;;;;;;;5.75;4.50;;;;;13.21;42.27;101206.94;146600;569;46917;-75
2022/11/26 14:32:35;;;;;;;;;2.00;1.33;;;;;12.64;42.80;101114.75;146601;566;46010;-74
2022/11/26 14:35:56;;;;;;;;;5.00;3.25;;;;;15.65;42.50;101648.91;146598;584;46016;-73
2022/11/26 14:39:16;;;;;;;;;7.00;6.00;;;;;15.62;43.21;101654.00;146601;686;46027;-74
2022/11/26 14:42:24;;;;;;;;;10.00;8.50;;;;;15.59;42.68;101662.59;146599;717;46916;-74
2022/11/26 14:45:26;;;;;;;;;14.50;11.25;;;;;15.57;43.22;101659.00;146601;611;46020;-73
2022/11/26 14:48:30;;;;;;;;;5.00;3.00;;;;;15.55;42.47;101667.63;146599;724;46016;-75
2022/11/26 14:51:37;;;;;;;;;5.25;5.00;;;;;15.45;42.74;101666.28;146601;675;46010;-73
2022/11/26 14:54:48;;;;;;;;;12.50;8.50;;;;;15.35;42.80;101664.06;146597;742;46016;-74